sensor_id;sensor_type;location;lat;lon;timestamp;pressure;altitude;pressure_sealevel;temperature;humidity
25658;BME280;13517;59.320;18.042;2022-12-07T00:01:12;100439.66;;;-5.42;100.00
25658;BME280;13517;59.320;18.042;2022-12-07T00:03:40;100483.47;;;-5.21;100.00
25658;BME280;13517;59.320;18.042;2022-12-07T00:06:08;100480.84;;;-5.29;100.00
25658;BME280;13517;59.320;18.042;2022-12-07T00:08:34;100484.41;;;-5.38;100.00
25658;BME280;13517;59.320;18.042;2022-12-07T00:11:07;100491.44;;;-5.37;100.00
25658;BME280;13517;59.320;18.042;2022-12-07T00:13:34;100417.81;;;-5.71;100.00
25658;BME280;13517;59.320;18.042;2022-12-07T00:16:04;100463.38;;;-5.44;100.00
25658;BME280;13517;59.320;18.042;2022-12-07T00:18:30;100473.03;;;-5.43;100.00
25658;BME280;13517;59.320;18.042;2022-12-07T00:21:04;100464.25;;;-5.50;100.00
25658;BME280;13517;59.320;18.042;2022-12-07T00:23:30;100480.03;;;-5.43;100.00
25658;BME280;13517;59.320;18.042;2022-12-07T00:25:55;100473.91;;;-5.49;100.00
25658;BME280;13517;59.320;18.042;2022-12-07T00:28:21;100478.28;;;-5.41;100.00
25658;BME280;13517;59.320;18.042;2022-12-07T00:30:47;100465.13;;;-5.43;100.00
25658;BME280;13517;59.320;18.042;2022-12-07T00:33:12;100453.72;;;-5.48;100.00
25658;BME280;13517;59.320;18.042;2022-12-07T00:35:37;100451.97;;;-5.48;100.00
25658;BME280;13517;59.320;18.042;2022-12-07T00:38:03;100444.97;;;-5.49;100.00
25658;BME280;13517;59.320;18.042;2022-12-07T00:40:28;100451.94;;;-5.44;100.00
25658;BME280;13517;59.320;18.042;2022-12-07T00:42:53;100435.31;;;-5.54;100.00
25658;BME280;13517;59.320;18.042;2022-12-07T00:45:19;100427.41;;;-5.48;100.00
25658;BME280;13517;59.320;18.042;2022-12-07T00:47:44;100454.56;;;-5.30;100.00
25658;BME280;13517;59.320;18.042;2022-12-07T00:50:10;100444.00;;;-5.34;100.00
25658;BME280;13517;59.320;18.042;2022-12-07T00:52:35;100437.88;;;-5.33;100.00
25658;BME280;13517;59.320;18.042;2022-12-07T00:55:01;100440.47;;;-5.26;100.00
25658;BME280;13517;59.320;18.042;2022-12-07T00:57:26;100451.91;;;-5.26;100.00
25658;BME280;13517;59.320;18.042;2022-12-07T00:59:51;100424.72;;;-5.39;100.00
25658;BME280;13517;59.320;18.042;2022-12-07T01:02:21;100438.75;;;-5.30;100.00
25658;BME280;13517;59.320;18.042;2022-12-07T01:04:47;100429.09;;;-5.36;100.00
25658;BME280;13517;59.320;18.042;2022-12-07T01:07:12;100413.31;;;-5.42;100.00
25658;BME280;13517;59.320;18.042;2022-12-07T01:09:38;100441.41;;;-5.40;100.00
25658;BME280;13517;59.320;18.042;2022-12-07T01:12:03;100379.25;;;-5.72;100.00
25658;BME280;13517;59.320;18.042;2022-12-07T01:14:29;100429.09;;;-5.36;100.00
25658;BME280;13517;59.320;18.042;2022-12-07T01:16:54;100445.78;;;-5.28;100.00
25658;BME280;13517;59.320;18.042;2022-12-07T01:19:20;100437.03;;;-5.38;100.00
25658;BME280;13517;59.320;18.042;2022-12-07T01:21:45;100434.41;;;-5.38;100.00
25658;BME280;13517;59.320;18.042;2022-12-07T01:24:11;100420.38;;;-5.43;100.00
25658;BME280;13517;59.320;18.042;2022-12-07T01:26:36;100437.03;;;-5.38;100.00
25658;BME280;13517;59.320;18.042;2022-12-07T01:29:02;100437.88;;;-5.29;100.00
25658;BME280;13517;59.320;18.042;2022-12-07T01:31:29;100409.91;;;-5.58;100.00
25658;BME280;13517;59.320;18.042;2022-12-07T01:33:57;100438.72;;;-5.27;100.00
25658;BME280;13517;59.320;18.042;2022-12-07T01:36:31;100426.47;;;-5.35;100.00
25658;BME280;13517;59.320;18.042;2022-12-07T01:38:59;100376.59;;;-5.66;100.00
25658;BME280;13517;59.320;18.042;2022-12-07T01:41:28;100431.72;;;-5.27;100.00
25658;BME280;13517;59.320;18.042;2022-12-07T01:44:18;100431.69;;;-5.25;100.00
25658;BME280;13517;59.320;18.042;2022-12-07T01:47:03;100438.72;;;-5.21;100.00
25658;BME280;13517;59.320;18.042;2022-12-07T01:49:37;100382.69;;;-5.51;100.00
25658;BME280;13517;59.320;18.042;2022-12-07T01:52:14;100380.91;;;-5.49;100.00
25658;BME280;13517;59.320;18.042;2022-12-07T01:54:42;100441.31;;;-5.16;100.00
25658;BME280;13517;59.320;18.042;2022-12-07T01:57:09;100439.56;;;-5.17;100.00
25658;BME280;13517;59.320;18.042;2022-12-07T01:59:36;100420.31;;;-5.24;100.00
25658;BME280;13517;59.320;18.042;2022-12-07T02:02:04;100434.28;;;-5.14;100.00
25658;BME280;13517;59.320;18.042;2022-12-07T02:04:33;100418.53;;;-5.24;100.00
25658;BME280;13517;59.320;18.042;2022-12-07T02:06:59;100371.25;;;-5.49;100.00
25658;BME280;13517;59.320;18.042;2022-12-07T02:09:25;100427.25;;;-5.15;100.00
25658;BME280;13517;59.320;18.042;2022-12-07T02:11:50;100427.28;;;-5.17;100.00
25658;BME280;13517;59.320;18.042;2022-12-07T02:14:17;100420.25;;;-5.16;100.00
25658;BME280;13517;59.320;18.042;2022-12-07T02:22:37;100421.13;;;-5.19;100.00
25658;BME280;13517;59.320;18.042;2022-12-07T02:30:45;100411.47;;;-5.20;100.00
25658;BME280;13517;59.320;18.042;2022-12-07T02:33:25;100407.97;;;-5.19;100.00
25658;BME280;13517;59.320;18.042;2022-12-07T02:36:01;100415.00;;;-5.23;100.00
25658;BME280;13517;59.320;18.042;2022-12-07T02:38:37;100386.13;;;-5.37;100.00
25658;BME280;13517;59.320;18.042;2022-12-07T02:41:12;100410.63;;;-5.22;100.00
25658;BME280;13517;59.320;18.042;2022-12-07T02:43:45;100332.69;;;-5.61;100.00
25658;BME280;13517;59.320;18.042;2022-12-07T02:46:15;100397.47;;;-5.28;100.00
25658;BME280;13517;59.320;18.042;2022-12-07T02:48:43;100407.13;;;-5.27;100.00
25658;BME280;13517;59.320;18.042;2022-12-07T02:51:09;100346.75;;;-5.68;100.00
25658;BME280;13517;59.320;18.042;2022-12-07T02:59:24;100400.16;;;-5.38;100.00
25658;BME280;13517;59.320;18.042;2022-12-07T03:02:03;100397.53;;;-5.39;100.00
25658;BME280;13517;59.320;18.042;2022-12-07T03:07:29;100400.22;;;-5.53;100.00
25658;BME280;13517;59.320;18.042;2022-12-07T03:15:29;100342.47;;;-5.94;100.00
25658;BME280;13517;59.320;18.042;2022-12-07T03:17:57;100388.84;;;-5.68;100.00
25658;BME280;13517;59.320;18.042;2022-12-07T03:20:25;100350.38;;;-5.98;100.00
25658;BME280;13517;59.320;18.042;2022-12-07T03:22:53;100388.88;;;-5.77;100.00
25658;BME280;13517;59.320;18.042;2022-12-07T03:25:19;100390.63;;;-5.68;100.00
25658;BME280;13517;59.320;18.042;2022-12-07T03:27:58;100387.09;;;-5.64;100.00
25658;BME280;13517;59.320;18.042;2022-12-07T03:33:24;100385.31;;;-5.61;100.00
25658;BME280;13517;59.320;18.042;2022-12-07T03:36:02;100383.59;;;-5.65;100.00
25658;BME280;13517;59.320;18.042;2022-12-07T03:38:38;100380.97;;;-5.71;100.00
25658;BME280;13517;59.320;18.042;2022-12-07T03:41:13;100386.25;;;-5.71;100.00
25658;BME280;13517;59.320;18.042;2022-12-07T03:43:40;100386.25;;;-5.71;100.00
25658;BME280;13517;59.320;18.042;2022-12-07T03:51:28;100396.78;;;-5.71;100.00
25658;BME280;13517;59.320;18.042;2022-12-07T03:54:05;100378.34;;;-5.65;100.00
25658;BME280;13517;59.320;18.042;2022-12-07T03:56:32;100339.78;;;-5.78;100.00
25658;BME280;13517;59.320;18.042;2022-12-07T03:58:59;100310.91;;;-5.88;100.00
25658;BME280;13517;59.320;18.042;2022-12-07T04:01:24;100360.75;;;-5.55;100.00
25658;BME280;13517;59.320;18.042;2022-12-07T04:03:50;100363.41;;;-5.59;100.00
25658;BME280;13517;59.320;18.042;2022-12-07T04:06:15;100309.13;;;-5.89;100.00
25658;BME280;13517;59.320;18.042;2022-12-07T04:08:41;100357.22;;;-5.54;100.00
25658;BME280;13517;59.320;18.042;2022-12-07T04:11:06;100360.75;;;-5.55;100.00
25658;BME280;13517;59.320;18.042;2022-12-07T04:13:32;100351.97;;;-5.52;100.00
25658;BME280;13517;59.320;18.042;2022-12-07T04:16:17;100354.59;;;-5.52;100.00
25658;BME280;13517;59.320;18.042;2022-12-07T04:18:42;100324.75;;;-5.51;100.00
25658;BME280;13517;59.320;18.042;2022-12-07T04:21:08;100348.41;;;-5.42;100.00
25658;BME280;13517;59.320;18.042;2022-12-07T04:23:33;100344.00;;;-5.37;100.00
25658;BME280;13517;59.320;18.042;2022-12-07T04:25:59;100281.00;;;-5.71;100.00
25658;BME280;13517;59.320;18.042;2022-12-07T04:28:24;100284.44;;;-5.64;100.00
25658;BME280;13517;59.320;18.042;2022-12-07T04:30:49;100336.03;;;-5.26;100.00
25658;BME280;13517;59.320;18.042;2022-12-07T04:33:15;100337.81;;;-5.28;100.00
25658;BME280;13517;59.320;18.042;2022-12-07T04:35:42;100294.00;;;-5.46;100.00
25658;BME280;13517;59.320;18.042;2022-12-07T04:38:08;100324.56;;;-5.17;100.00
25658;BME280;13517;59.320;18.042;2022-12-07T04:40:33;100329.84;;;-5.17;100.00
25658;BME280;13517;59.320;18.042;2022-12-07T04:42:59;100329.84;;;-5.17;100.00
25658;BME280;13517;59.320;18.042;2022-12-07T04:45:24;100312.31;;;-5.21;100.00
25658;BME280;13517;59.320;18.042;2022-12-07T04:47:50;100321.06;;;-5.19;100.00
25658;BME280;13517;59.320;18.042;2022-12-07T04:50:15;100319.34;;;-5.23;100.00
25658;BME280;13517;59.320;18.042;2022-12-07T04:52:41;100321.09;;;-5.25;100.00
25658;BME280;13517;59.320;18.042;2022-12-07T04:55:06;100303.53;;;-5.26;100.00
25658;BME280;13517;59.320;18.042;2022-12-07T04:57:32;100310.56;;;-5.22;100.00
25658;BME280;13517;59.320;18.042;2022-12-07T04:59:57;100307.91;;;-5.24;100.00
25658;BME280;13517;59.320;18.042;2022-12-07T05:02:23;100296.53;;;-5.24;100.00
25658;BME280;13517;59.320;18.042;2022-12-07T05:04:48;100295.63;;;-5.22;100.00
25658;BME280;13517;59.320;18.042;2022-12-07T05:07:14;100234.41;;;-5.56;100.00
25658;BME280;13517;59.320;18.042;2022-12-07T05:09:39;100285.06;;;-5.18;100.00
25658;BME280;13517;59.320;18.042;2022-12-07T05:12:04;100296.47;;;-5.18;100.00
25658;BME280;13517;59.320;18.042;2022-12-07T05:14:30;100228.25;;;-5.52;100.00
25658;BME280;13517;59.320;18.042;2022-12-07T05:16:55;100272.84;;;-5.24;100.00
25658;BME280;13517;59.320;18.042;2022-12-07T05:19:21;100268.41;;;-5.22;100.00
25658;BME280;13517;59.320;18.042;2022-12-07T05:21:47;100267.50;;;-5.13;100.00
25658;BME280;13517;59.320;18.042;2022-12-07T05:24:14;100284.06;;;-5.00;100.00
25658;BME280;13517;59.320;18.042;2022-12-07T05:26:40;100252.63;;;-5.22;100.00
25658;BME280;13517;59.320;18.042;2022-12-07T05:29:05;100262.25;;;-5.21;100.00
25658;BME280;13517;59.320;18.042;2022-12-07T05:31:31;100271.03;;;-5.17;100.00
25658;BME280;13517;59.320;18.042;2022-12-07T05:33:56;100223.84;;;-5.53;100.00
25658;BME280;13517;59.320;18.042;2022-12-07T05:36:22;100235.28;;;-5.51;100.00
25658;BME280;13517;59.320;18.042;2022-12-07T05:38:47;100229.13;;;-5.53;100.00
25658;BME280;13517;59.320;18.042;2022-12-07T05:41:15;100219.56;;;-5.64;100.00
25658;BME280;13517;59.320;18.042;2022-12-07T05:43:59;100270.28;;;-5.37;100.00
25658;BME280;13517;59.320;18.042;2022-12-07T05:46:25;100279.03;;;-5.33;100.00
25658;BME280;13517;59.320;18.042;2022-12-07T05:48:51;100179.41;;;-5.94;100.00
25658;BME280;13517;59.320;18.042;2022-12-07T05:51:17;100252.78;;;-5.44;100.00
25658;BME280;13517;59.320;18.042;2022-12-07T05:53:42;100267.69;;;-5.41;100.00
25658;BME280;13517;59.320;18.042;2022-12-07T05:56:08;100270.28;;;-5.37;100.00
25658;BME280;13517;59.320;18.042;2022-12-07T05:58:33;100265.91;;;-5.41;100.00
25658;BME280;13517;59.320;18.042;2022-12-07T06:01:17;100280.84;;;-5.43;100.00
25658;BME280;13517;59.320;18.042;2022-12-07T06:03:42;100273.88;;;-5.50;100.00
25658;BME280;13517;59.320;18.042;2022-12-07T06:06:08;100217.91;;;-5.80;100.00
25658;BME280;13517;59.320;18.042;2022-12-07T06:08:33;100256.38;;;-5.56;100.00
25658;BME280;13517;59.320;18.042;2022-12-07T06:10:58;100259.00;;;-5.57;100.00
25658;BME280;13517;59.320;18.042;2022-12-07T06:13:42;100207.44;;;-5.93;100.00
25658;BME280;13517;59.320;18.042;2022-12-07T06:16:08;100271.25;;;-5.56;100.00
25658;BME280;13517;59.320;18.042;2022-12-07T06:18:33;100259.91;;;-5.65;100.00
25658;BME280;13517;59.320;18.042;2022-12-07T06:20:59;100284.41;;;-5.53;100.00
25658;BME280;13517;59.320;18.042;2022-12-07T06:23:24;100234.53;;;-5.80;100.00
25658;BME280;13517;59.320;18.042;2022-12-07T06:25:50;100277.38;;;-5.53;100.00
25658;BME280;13517;59.320;18.042;2022-12-07T06:28:15;100277.38;;;-5.53;100.00
25658;BME280;13517;59.320;18.042;2022-12-07T06:30:40;100197.00;;;-6.02;100.00
25658;BME280;13517;59.320;18.042;2022-12-07T06:33:06;100274.78;;;-5.56;100.00
25658;BME280;13517;59.320;18.042;2022-12-07T06:35:33;100226.69;;;-5.84;100.00
25658;BME280;13517;59.320;18.042;2022-12-07T06:37:58;100295.81;;;-5.53;100.00
25658;BME280;13517;59.320;18.042;2022-12-07T06:40:24;100296.69;;;-5.57;100.00
25658;BME280;13517;59.320;18.042;2022-12-07T06:42:50;100290.56;;;-5.59;100.00
25658;BME280;13517;59.320;18.042;2022-12-07T06:45:15;100300.25;;;-5.59;100.00
25658;BME280;13517;59.320;18.042;2022-12-07T06:47:40;100296.72;;;-5.62;100.00
25658;BME280;13517;59.320;18.042;2022-12-07T06:50:06;100277.47;;;-5.70;100.00
25658;BME280;13517;59.320;18.042;2022-12-07T06:52:33;100287.13;;;-5.69;100.00
25658;BME280;13517;59.320;18.042;2022-12-07T06:54:58;100287.16;;;-5.70;100.00
25658;BME280;13517;59.320;18.042;2022-12-07T06:57:24;100288.00;;;-5.70;100.00
25658;BME280;13517;59.320;18.042;2022-12-07T06:59:50;100228.59;;;-6.08;100.00
25658;BME280;13517;59.320;18.042;2022-12-07T07:02:15;100295.91;;;-5.70;100.00
25658;BME280;13517;59.320;18.042;2022-12-07T07:04:41;100293.25;;;-5.71;100.00
25658;BME280;13517;59.320;18.042;2022-12-07T07:07:06;100253.09;;;-6.03;100.00
25658;BME280;13517;59.320;18.042;2022-12-07T07:09:32;100284.56;;;-5.84;100.00
25658;BME280;13517;59.320;18.042;2022-12-07T07:11:57;100302.94;;;-5.74;100.00
25658;BME280;13517;59.320;18.042;2022-12-07T07:14:23;100295.97;;;-5.84;100.00
25658;BME280;13517;59.320;18.042;2022-12-07T07:16:48;100316.97;;;-5.75;100.00
25658;BME280;13517;59.320;18.042;2022-12-07T07:19:13;100281.06;;;-5.90;100.00
25658;BME280;13517;59.320;18.042;2022-12-07T07:21:39;100312.59;;;-5.77;100.00
25658;BME280;13517;59.320;18.042;2022-12-07T07:24:04;100316.09;;;-5.75;100.00
25658;BME280;13517;59.320;18.042;2022-12-07T07:26:30;100268.91;;;-6.06;100.00
25658;BME280;13517;59.320;18.042;2022-12-07T07:28:55;100309.09;;;-5.82;100.00
25658;BME280;13517;59.320;18.042;2022-12-07T07:31:21;100319.66;;;-5.85;100.00
25658;BME280;13517;59.320;18.042;2022-12-07T07:33:46;100314.38;;;-5.85;100.00
25658;BME280;13517;59.320;18.042;2022-12-07T07:36:12;100289.88;;;-5.98;100.00
25658;BME280;13517;59.320;18.042;2022-12-07T07:38:37;100255.81;;;-6.23;100.00
25658;BME280;13517;59.320;18.042;2022-12-07T07:41:03;100249.66;;;-6.18;100.00
25658;BME280;13517;59.320;18.042;2022-12-07T07:43:28;100268.84;;;-6.02;100.00
25658;BME280;13517;59.320;18.042;2022-12-07T07:45:54;100257.53;;;-6.13;100.00
25658;BME280;13517;59.320;18.042;2022-12-07T07:48:19;100256.66;;;-6.17;100.00
25658;BME280;13517;59.320;18.042;2022-12-07T07:50:45;100298.59;;;-5.89;100.00
25658;BME280;13517;59.320;18.042;2022-12-07T07:53:10;100303.88;;;-5.84;100.00
25658;BME280;13517;59.320;18.042;2022-12-07T07:55:36;100214.66;;;-6.29;100.00
25658;BME280;13517;59.320;18.042;2022-12-07T07:58:01;100313.47;;;-5.77;100.00
25658;BME280;13517;59.320;18.042;2022-12-07T08:00:27;100241.78;;;-6.19;100.00
25658;BME280;13517;59.320;18.042;2022-12-07T08:02:52;100309.09;;;-5.73;100.00
25658;BME280;13517;59.320;18.042;2022-12-07T08:05:18;100299.41;;;-5.71;100.00
25658;BME280;13517;59.320;18.042;2022-12-07T08:07:43;100251.38;;;-6.06;100.00
25658;BME280;13517;59.320;18.042;2022-12-07T08:10:10;100295.91;;;-5.71;100.00
25658;BME280;13517;59.320;18.042;2022-12-07T08:12:37;100305.56;;;-5.72;100.00
25658;BME280;13517;59.320;18.042;2022-12-07T08:15:24;100285.44;;;-5.79;100.00
25658;BME280;13517;59.320;18.042;2022-12-07T08:17:49;100277.50;;;-5.78;100.00
25658;BME280;13517;59.320;18.042;2022-12-07T08:20:15;100270.53;;;-5.80;100.00
25658;BME280;13517;59.320;18.042;2022-12-07T08:22:40;100288.00;;;-5.70;100.00
25658;BME280;13517;59.320;18.042;2022-12-07T08:25:06;100294.16;;;-5.69;100.00
25658;BME280;13517;59.320;18.042;2022-12-07T08:27:31;100201.44;;;-6.17;100.00
25658;BME280;13517;59.320;18.042;2022-12-07T08:29:57;100271.34;;;-5.72;100.00
25658;BME280;13517;59.320;18.042;2022-12-07T08:32:22;100280.94;;;-5.62;100.00
25658;BME280;13517;59.320;18.042;2022-12-07T08:34:48;100280.91;;;-5.55;100.00
25658;BME280;13517;59.320;18.042;2022-12-07T08:37:13;100230.19;;;-5.85;100.00
25658;BME280;13517;59.320;18.042;2022-12-07T08:39:38;100277.41;;;-5.57;100.00
25658;BME280;13517;59.320;18.042;2022-12-07T08:42:04;100280.91;;;-5.57;100.00
25658;BME280;13517;59.320;18.042;2022-12-07T08:44:29;100229.28;;;-5.81;100.00
25658;BME280;13517;59.320;18.042;2022-12-07T08:46:59;100283.47;;;-5.46;100.00
25658;BME280;13517;59.320;18.042;2022-12-07T08:49:42;100270.38;;;-5.55;100.00
25658;BME280;13517;59.320;18.042;2022-12-07T08:52:08;100279.09;;;-5.47;100.00
25658;BME280;13517;59.320;18.042;2022-12-07T08:54:36;100259.91;;;-5.65;100.00
25658;BME280;13517;59.320;18.042;2022-12-07T08:57:04;100277.34;;;-5.48;100.00
25658;BME280;13517;59.320;18.042;2022-12-07T08:59:33;100264.22;;;-5.54;100.00
25658;BME280;13517;59.320;18.042;2022-12-07T09:01:59;100268.59;;;-5.53;100.00
25658;BME280;13517;59.320;18.042;2022-12-07T09:04:25;100252.84;;;-5.56;100.00
25658;BME280;13517;59.320;18.042;2022-12-07T09:06:50;100279.06;;;-5.39;100.00
25658;BME280;13517;59.320;18.042;2022-12-07T09:09:16;100264.13;;;-5.36;100.00
25658;BME280;13517;59.320;18.042;2022-12-07T09:11:42;100260.63;;;-5.38;100.00
25658;BME280;13517;59.320;18.042;2022-12-07T09:14:07;100268.50;;;-5.33;100.00
25658;BME280;13517;59.320;18.042;2022-12-07T09:16:33;100241.41;;;-5.51;100.00
25658;BME280;13517;59.320;18.042;2022-12-07T09:18:58;100245.81;;;-5.51;100.00
25658;BME280;13517;59.320;18.042;2022-12-07T09:21:23;100271.16;;;-5.38;100.00
25658;BME280;13517;59.320;18.042;2022-12-07T09:23:49;100218.69;;;-5.67;100.00
25658;BME280;13517;59.320;18.042;2022-12-07T09:26:14;100281.66;;;-5.36;100.00
25658;BME280;13517;59.320;18.042;2022-12-07T09:28:40;100258.00;;;-5.38;100.00
25658;BME280;13517;59.320;18.042;2022-12-07T09:31:05;100223.94;;;-5.61;100.00
25658;BME280;13517;59.320;18.042;2022-12-07T09:33:31;100263.22;;;-5.31;100.00
25658;BME280;13517;59.320;18.042;2022-12-07T09:35:57;100244.84;;;-5.41;100.00
25658;BME280;13517;59.320;18.042;2022-12-07T09:38:23;100263.19;;;-5.28;100.00
25658;BME280;13517;59.320;18.042;2022-12-07T09:40:52;100232.59;;;-5.48;100.00
25658;BME280;13517;59.320;18.042;2022-12-07T09:43:21;100258.78;;;-5.25;100.00
25658;BME280;13517;59.320;18.042;2022-12-07T09:45:50;100212.47;;;-5.52;100.00
25658;BME280;13517;59.320;18.042;2022-12-07T09:48:19;100266.59;;;-5.15;100.00
25658;BME280;13517;59.320;18.042;2022-12-07T09:50:47;100245.66;;;-5.29;100.00
25658;BME280;13517;59.320;18.042;2022-12-07T09:53:20;100203.59;;;-5.42;100.00
25658;BME280;13517;59.320;18.042;2022-12-07T09:55:47;100241.19;;;-5.20;100.00
25658;BME280;13517;59.320;18.042;2022-12-07T09:58:23;100256.09;;;-5.17;100.00
25658;BME280;13517;59.320;18.042;2022-12-07T10:00:50;100256.06;;;-5.14;100.00
25658;BME280;13517;59.320;18.042;2022-12-07T10:03:17;100242.94;;;-5.17;100.00
25658;BME280;13517;59.320;18.042;2022-12-07T10:05:46;100268.25;;;-5.00;100.00
25658;BME280;13517;59.320;18.042;2022-12-07T10:08:14;100275.22;;;-4.95;100.00
25658;BME280;13517;59.320;18.042;2022-12-07T10:10:43;100202.63;;;-5.27;100.00
25658;BME280;13517;59.320;18.042;2022-12-07T10:13:14;100246.25;;;-4.92;100.00
25658;BME280;13517;59.320;18.042;2022-12-07T10:18:35;100247.88;;;-4.81;100.00
25658;BME280;13517;59.320;18.042;2022-12-07T10:23:34;100247.03;;;-4.85;100.00
25658;BME280;13517;59.320;18.042;2022-12-07T10:28:47;100233.84;;;-4.82;100.00
25658;BME280;13517;59.320;18.042;2022-12-07T10:31:19;100235.56;;;-4.76;100.00
25658;BME280;13517;59.320;18.042;2022-12-07T10:33:59;100234.66;;;-4.73;100.00
25658;BME280;13517;59.320;18.042;2022-12-07T10:41:18;100230.28;;;-4.74;100.00
25658;BME280;13517;59.320;18.042;2022-12-07T10:43:51;100215.31;;;-4.75;100.00
25658;BME280;13517;59.320;18.042;2022-12-07T10:49:34;100220.63;;;-4.79;100.00
25658;BME280;13517;59.320;18.042;2022-12-07T10:52:09;100218.06;;;-4.82;100.00
25658;BME280;13517;59.320;18.042;2022-12-07T11:00:09;100203.16;;;-4.87;100.00
25658;BME280;13517;59.320;18.042;2022-12-07T11:08:34;100189.13;;;-4.88;100.00
25658;BME280;13517;59.320;18.042;2022-12-07T11:16:38;100178.53;;;-4.82;100.00
25658;BME280;13517;59.320;18.042;2022-12-07T11:19:25;100127.84;;;-5.10;100.00
25658;BME280;13517;59.320;18.042;2022-12-07T11:21:58;100172.25;;;-4.73;100.00
25658;BME280;13517;59.320;18.042;2022-12-07T11:32:43;100163.47;;;-4.72;100.00
25658;BME280;13517;59.320;18.042;2022-12-07T11:37:51;100104.09;;;-5.06;100.00
25658;BME280;13517;59.320;18.042;2022-12-07T11:40:30;100145.00;;;-4.70;100.00
25658;BME280;13517;59.320;18.042;2022-12-07T11:43:01;100169.56;;;-4.68;100.00
25658;BME280;13517;59.320;18.042;2022-12-07T11:45:32;100144.16;;;-4.72;100.00
25658;BME280;13517;59.320;18.042;2022-12-07T11:50:54;100102.28;;;-4.99;100.00
25658;BME280;13517;59.320;18.042;2022-12-07T11:53:30;100139.72;;;-4.67;100.00
25658;BME280;13517;59.320;18.042;2022-12-07T11:56:11;100141.41;;;-4.65;100.00
25658;BME280;13517;59.320;18.042;2022-12-07T11:58:54;100138.81;;;-4.66;100.00
25658;BME280;13517;59.320;18.042;2022-12-07T12:06:36;100130.03;;;-4.67;100.00
25658;BME280;13517;59.320;18.042;2022-12-07T12:25:53;100073.81;;;-4.67;100.00
25658;BME280;13517;59.320;18.042;2022-12-07T12:31:15;100050.25;;;-4.80;100.00
25658;BME280;13517;59.320;18.042;2022-12-07T12:33:50;100086.91;;;-4.61;100.00
25658;BME280;13517;59.320;18.042;2022-12-07T12:36:26;100107.84;;;-4.48;100.00
25658;BME280;13517;59.320;18.042;2022-12-07T12:39:14;100092.16;;;-4.61;100.00
25658;BME280;13517;59.320;18.042;2022-12-07T12:46:56;100108.66;;;-4.45;100.00
25658;BME280;13517;59.320;18.042;2022-12-07T12:51:54;100108.72;;;-4.48;100.00
25658;BME280;13517;59.320;18.042;2022-12-07T12:54:25;100071.91;;;-4.57;100.00
25658;BME280;13517;59.320;18.042;2022-12-07T12:59:28;100098.06;;;-4.39;100.00
25658;BME280;13517;59.320;18.042;2022-12-07T13:04:34;100047.44;;;-4.66;100.00
25658;BME280;13517;59.320;18.042;2022-12-07T13:07:03;100090.16;;;-4.40;100.00
25658;BME280;13517;59.320;18.042;2022-12-07T13:09:33;100083.22;;;-4.47;100.00
25658;BME280;13517;59.320;18.042;2022-12-07T13:12:05;100061.50;;;-4.68;100.00
25658;BME280;13517;59.320;18.042;2022-12-07T13:17:11;100068.56;;;-4.70;100.00
25658;BME280;13517;59.320;18.042;2022-12-07T13:25:07;100043.25;;;-4.84;100.00
25658;BME280;13517;59.320;18.042;2022-12-07T13:27:37;100093.00;;;-4.56;100.00
25658;BME280;13517;59.320;18.042;2022-12-07T13:30:18;100097.28;;;-4.48;100.00
25658;BME280;13517;59.320;18.042;2022-12-07T13:32:52;100077.31;;;-4.65;100.00
25658;BME280;13517;59.320;18.042;2022-12-07T13:35:34;100087.78;;;-4.60;100.00
25658;BME280;13517;59.320;18.042;2022-12-07T13:38:34;100115.81;;;-4.53;100.00
25658;BME280;13517;59.320;18.042;2022-12-07T13:41:17;100073.84;;;-4.69;100.00
25658;BME280;13517;59.320;18.042;2022-12-07T13:43:46;100059.88;;;-4.77;100.00
25658;BME280;13517;59.320;18.042;2022-12-07T13:46:13;100102.63;;;-4.55;100.00
25658;BME280;13517;59.320;18.042;2022-12-07T13:48:47;100090.34;;;-4.56;100.00
25658;BME280;13517;59.320;18.042;2022-12-07T13:51:25;100094.78;;;-4.56;100.00
25658;BME280;13517;59.320;18.042;2022-12-07T13:54:00;100105.34;;;-4.58;100.00
25658;BME280;13517;59.320;18.042;2022-12-07T13:56:32;100096.66;;;-4.68;100.00
25658;BME280;13517;59.320;18.042;2022-12-07T13:58:58;100074.09;;;-4.92;100.00
25658;BME280;13517;59.320;18.042;2022-12-07T14:01:25;100072.25;;;-4.82;100.00
25658;BME280;13517;59.320;18.042;2022-12-07T14:03:51;100042.63;;;-5.04;100.00
25658;BME280;13517;59.320;18.042;2022-12-07T14:06:23;100060.03;;;-4.93;100.00
25658;BME280;13517;59.320;18.042;2022-12-07T14:09:09;100070.50;;;-4.86;100.00
25658;BME280;13517;59.320;18.042;2022-12-07T14:11:34;100059.13;;;-4.87;100.00
25658;BME280;13517;59.320;18.042;2022-12-07T14:14:01;100063.50;;;-4.84;100.00
25658;BME280;13517;59.320;18.042;2022-12-07T14:16:34;100076.59;;;-4.80;100.00
25658;BME280;13517;59.320;18.042;2022-12-07T14:19:03;100083.66;;;-4.82;100.00
25658;BME280;13517;59.320;18.042;2022-12-07T14:21:31;100015.63;;;-5.21;100.00
25658;BME280;13517;59.320;18.042;2022-12-07T14:24:17;100076.63;;;-4.83;100.00
25658;BME280;13517;59.320;18.042;2022-12-07T14:26:47;100074.09;;;-4.92;100.00
25658;BME280;13517;59.320;18.042;2022-12-07T14:31:51;100024.38;;;-5.20;100.00
25658;BME280;13517;59.320;18.042;2022-12-07T14:34:20;100063.56;;;-4.94;100.00
25658;BME280;13517;59.320;18.042;2022-12-07T14:36:45;100047.09;;;-5.10;100.00
25658;BME280;13517;59.320;18.042;2022-12-07T14:39:11;100055.75;;;-5.00;100.00
25658;BME280;13517;59.320;18.042;2022-12-07T14:41:36;100040.16;;;-5.17;100.00
25658;BME280;13517;59.320;18.042;2022-12-07T14:44:21;100062.81;;;-5.03;100.00
25658;BME280;13517;59.320;18.042;2022-12-07T14:46:48;100052.31;;;-5.05;100.00